ADDS METAR Data

Data at: 0515 UTC 19 Jan 2018

METAR for:K1P1 (Plymouth Muni, NH, US)
Text:K1P1 190515Z AUTO 30005KT 10SM CLR M05/M08 A2990 RMK AO2 T10521080
Temperature: -5.2°C ( 23°F)
Dewpoint: -8.0°C ( 18°F) [RH = 81%]
Pressure (altimeter):29.90 inches Hg (1012.6 mb)
Winds:from the WNW (300 degrees) at 6 MPH (5 knots; 2.6 m/s)
Visibility:10 or more sm (16+ km)
Ceiling:at least 12,000 feet AGL
Clouds:sky clear below 12,000 feet AGL
QC Flag:automated observation with no human augmentation